createdAt,value
2019-05-05T00:01:00.276Z,3.18
2019-05-05T00:03:49.468Z,3.22
2019-05-05T00:06:19.913Z,3.17
2019-05-05T00:08:51.194Z,3.18
2019-05-05T00:11:32.662Z,3.21
2019-05-05T00:14:28.430Z,3.20
2019-05-05T00:17:19.854Z,3.24
2019-05-05T00:19:50.168Z,3.19
2019-05-05T00:22:20.323Z,3.02
2019-05-05T00:24:50.777Z,3.04
2019-05-05T00:27:20.974Z,3.12
2019-05-05T00:29:51.432Z,3.18
2019-05-05T00:32:21.682Z,3.17
2019-05-05T00:34:54.986Z,3.13
2019-05-05T00:37:25.684Z,3.16
2019-05-05T00:39:56.032Z,3.17
2019-05-05T00:42:26.293Z,3.23
2019-05-05T00:44:56.554Z,3.08
2019-05-05T00:47:46.634Z,2.99
2019-05-05T00:50:19.399Z,2.97
2019-05-05T00:52:49.509Z,2.98
2019-05-05T00:55:19.649Z,2.98
2019-05-05T00:57:49.917Z,2.98
2019-05-05T01:00:41.888Z,3.01
2019-05-05T01:03:15.289Z,3.09
2019-05-05T01:06:04.540Z,3.18
2019-05-05T01:08:35.496Z,3.18
2019-05-05T01:11:05.951Z,3.24
2019-05-05T01:13:36.091Z,3.29
2019-05-05T01:16:06.398Z,3.32
2019-05-05T01:18:36.909Z,3.36
2019-05-05T01:21:07.542Z,3.34
2019-05-05T01:23:37.809Z,3.38
2019-05-05T01:26:08.302Z,3.42
2019-05-05T01:28:38.969Z,3.40
2019-05-05T01:31:14.648Z,3.40
2019-05-05T01:34:19.618Z,3.43
2019-05-05T01:36:54.959Z,3.40
2019-05-05T01:39:32.044Z,3.30
2019-05-05T01:42:05.068Z,3.29
2019-05-05T01:44:35.485Z,3.32
2019-05-05T01:47:05.947Z,3.33
2019-05-05T01:49:36.118Z,3.35
2019-05-05T01:52:06.433Z,3.32
2019-05-05T01:54:36.620Z,3.23
2019-05-05T01:57:07.191Z,3.11
2019-05-05T01:59:38.172Z,3.04
2019-05-05T02:02:08.430Z,2.97
2019-05-05T02:04:39.008Z,2.91
2019-05-05T02:07:09.407Z,2.89
2019-05-05T02:09:39.629Z,2.86
2019-05-05T02:12:09.876Z,2.85
2019-05-05T02:14:40.049Z,2.81
2019-05-05T02:17:10.169Z,2.79
2019-05-05T02:19:40.305Z,2.80
2019-05-05T02:22:10.574Z,2.69
2019-05-05T02:24:40.864Z,2.66
2019-05-05T02:27:10.984Z,2.68
2019-05-05T02:29:54.877Z,2.63
2019-05-05T02:32:38.069Z,2.67
2019-05-05T02:35:11.775Z,2.68
2019-05-05T02:37:45.454Z,2.63
2019-05-05T02:40:16.078Z,2.67
2019-05-05T02:42:46.531Z,2.69
2019-05-05T02:45:37.131Z,2.74
2019-05-05T02:48:15.610Z,2.82
2019-05-05T02:51:01.707Z,2.80
2019-05-05T02:53:34.153Z,2.74
2019-05-05T02:56:06.665Z,2.74
2019-05-05T02:58:38.802Z,2.78
2019-05-05T03:01:26.545Z,2.80
2019-05-05T03:03:57.340Z,2.86
2019-05-05T03:06:27.533Z,2.93
2019-05-05T03:08:58.330Z,2.92
2019-05-05T03:11:30.797Z,2.95
2019-05-05T03:14:04.075Z,3.00
2019-05-05T03:16:37.644Z,2.99
2019-05-05T03:19:08.916Z,3.06
2019-05-05T03:21:40.238Z,3.03
2019-05-05T03:24:11.255Z,3.12
2019-05-05T03:26:41.688Z,3.16
2019-05-05T03:29:15.929Z,3.20
2019-05-05T03:31:46.186Z,3.23
2019-05-05T03:34:16.880Z,3.24
2019-05-05T03:36:47.224Z,3.18
2019-05-05T03:39:29.147Z,3.13
2019-05-05T03:42:16.605Z,3.15
2019-05-05T03:44:54.592Z,3.19
2019-05-05T03:47:25.857Z,3.16
2019-05-05T03:49:57.443Z,3.19
2019-05-05T03:52:29.260Z,3.15
2019-05-05T03:54:59.839Z,3.16
2019-05-05T03:57:29.991Z,3.20
2019-05-05T04:00:00.333Z,3.27
2019-05-05T04:02:41.492Z,3.33
2019-05-05T04:05:37.034Z,3.31
2019-05-05T04:08:07.503Z,3.33
2019-05-05T04:10:38.413Z,3.27
2019-05-05T04:13:08.910Z,3.32
2019-05-05T04:15:40.733Z,3.38
2019-05-05T04:18:19.152Z,3.42
2019-05-05T04:20:49.477Z,3.48
2019-05-05T04:23:19.674Z,3.49
2019-05-05T04:25:49.790Z,3.50
2019-05-05T04:28:19.913Z,3.44
2019-05-05T04:30:50.498Z,3.42
2019-05-05T04:33:21.141Z,3.49
2019-05-05T04:35:51.414Z,3.54
2019-05-05T04:38:21.815Z,3.55
2019-05-05T04:40:54.069Z,3.59
2019-05-05T04:43:24.612Z,3.58
2019-05-05T04:45:55.022Z,3.58
2019-05-05T04:48:35.103Z,3.57
2019-05-05T04:51:13.932Z,3.57
2019-05-05T04:54:03.833Z,3.61
2019-05-05T04:56:34.520Z,3.61
2019-05-05T04:59:05.168Z,3.64
2019-05-05T05:01:36.040Z,3.56
2019-05-05T05:04:34.665Z,3.70
2019-05-05T05:07:04.986Z,3.75
2019-05-05T05:09:35.264Z,3.78
2019-05-05T05:12:05.654Z,3.70
2019-05-05T05:14:35.918Z,3.76
2019-05-05T05:17:10.478Z,3.80
2019-05-05T05:19:40.915Z,3.87
2019-05-05T05:22:13.563Z,3.90
2019-05-05T05:24:44.665Z,3.99
2019-05-05T05:27:15.293Z,4.08
2019-05-05T05:29:45.543Z,4.14
2019-05-05T05:32:15.813Z,4.14
2019-05-05T05:34:46.045Z,4.16
2019-05-05T05:37:16.338Z,4.06
2019-05-05T05:40:08.573Z,4.11
2019-05-05T05:42:39.864Z,4.09
2019-05-05T05:45:34.258Z,4.21
2019-05-05T05:48:26.232Z,4.25
2019-05-05T05:51:01.748Z,4.31
2019-05-05T05:53:31.878Z,4.30
2019-05-05T05:56:04.215Z,4.24
2019-05-05T05:58:35.131Z,4.30
2019-05-05T06:01:06.371Z,4.28
2019-05-05T06:03:36.604Z,4.27
2019-05-05T06:06:06.730Z,4.25
2019-05-05T06:08:36.971Z,4.29
2019-05-05T06:11:07.144Z,4.37
2019-05-05T06:13:37.334Z,4.42
2019-05-05T06:16:07.474Z,4.51
2019-05-05T06:18:37.623Z,4.58
2019-05-05T06:21:07.884Z,4.64
2019-05-05T06:23:38.053Z,4.72
2019-05-05T06:26:08.276Z,4.88
2019-05-05T06:28:38.392Z,4.81
2019-05-05T06:31:08.573Z,4.85
2019-05-05T06:33:38.697Z,4.97
2019-05-05T06:36:09.006Z,5.00
2019-05-05T06:38:39.144Z,5.11
2019-05-05T06:41:17.674Z,5.04
2019-05-05T06:44:06.915Z,5.14
2019-05-05T06:46:55.316Z,5.26
2019-05-05T06:49:25.523Z,5.31
2019-05-05T06:51:56.163Z,5.20
2019-05-05T06:54:26.828Z,5.16
2019-05-05T06:56:57.104Z,5.13
2019-05-05T06:59:27.379Z,5.08
2019-05-05T07:01:57.809Z,5.09
2019-05-05T07:04:28.156Z,5.09
2019-05-05T07:06:58.723Z,4.95
2019-05-05T07:09:29.003Z,4.95
2019-05-05T07:11:59.304Z,4.88
2019-05-05T07:14:29.733Z,4.96
2019-05-05T07:17:00.039Z,4.44
2019-05-05T07:19:30.323Z,4.57
2019-05-05T07:22:00.587Z,4.62
2019-05-05T07:24:34.475Z,4.55
2019-05-05T07:27:04.989Z,4.36
2019-05-05T07:29:36.446Z,4.19
2019-05-05T07:32:06.826Z,4.37
2019-05-05T07:35:03.954Z,4.53
2019-05-05T07:37:34.389Z,4.65
2019-05-05T07:40:05.861Z,4.85
2019-05-05T07:42:36.702Z,4.98
2019-05-05T07:45:20.263Z,4.99
2019-05-05T07:47:43.653Z,4.79
2019-05-05T07:50:27.885Z,4.50
2019-05-05T07:52:46.565Z,4.58
2019-05-05T07:55:16.795Z,4.76
2019-05-05T07:57:47.036Z,5.06
2019-05-05T08:00:17.174Z,5.24
2019-05-05T08:02:47.922Z,5.23
2019-05-05T08:05:18.410Z,5.28
2019-05-05T08:07:49.103Z,5.30
2019-05-05T08:10:19.886Z,5.90
2019-05-05T08:12:50.303Z,6.61
2019-05-05T08:15:23.785Z,7.08
2019-05-05T08:18:13.818Z,7.61
2019-05-05T08:20:46.802Z,8.03
2019-05-05T08:23:32.790Z,8.43
2019-05-05T08:26:10.986Z,8.72
2019-05-05T08:29:04.640Z,8.79
2019-05-05T08:31:57.060Z,9.04
2019-05-05T08:34:27.781Z,9.15
2019-05-05T08:36:59.890Z,9.14
2019-05-05T08:39:30.521Z,9.21
2019-05-05T08:42:01.434Z,8.92
2019-05-05T08:44:34.128Z,8.80
2019-05-05T08:47:04.694Z,8.56
2019-05-05T08:49:35.595Z,8.56
2019-05-05T08:52:06.363Z,8.71
2019-05-05T08:54:36.888Z,9.40
2019-05-05T08:57:07.544Z,9.32
2019-05-05T08:59:38.076Z,9.59
2019-05-05T09:02:08.600Z,9.52
2019-05-05T09:04:39.502Z,9.25
2019-05-05T09:07:10.625Z,9.58
2019-05-05T09:09:41.025Z,9.76
2019-05-05T09:12:13.897Z,9.77
2019-05-05T09:14:44.939Z,9.39
2019-05-05T09:17:16.323Z,9.46
2019-05-05T09:19:46.804Z,9.57
2019-05-05T09:22:17.415Z,9.79
2019-05-05T09:25:07.087Z,10.26
2019-05-05T09:27:50.154Z,11.59
2019-05-05T09:30:34.560Z,12.91
2019-05-05T09:33:05.550Z,13.62
2019-05-05T09:35:36.169Z,13.20
2019-05-05T09:38:09.482Z,12.74
2019-05-05T09:40:43.805Z,12.64
2019-05-05T09:43:14.895Z,13.83
2019-05-05T09:45:45.839Z,14.21
2019-05-05T09:48:16.035Z,13.57
2019-05-05T09:50:47.091Z,14.03
2019-05-05T09:53:18.474Z,15.06
2019-05-05T09:55:48.823Z,15.38
2019-05-05T09:58:19.220Z,15.29
2019-05-05T10:00:49.621Z,16.61
2019-05-05T10:03:20.196Z,15.32
2019-05-05T10:05:50.416Z,16.07
2019-05-05T10:08:20.861Z,16.91
2019-05-05T10:10:51.201Z,16.30
2019-05-05T10:13:21.909Z,14.12
2019-05-05T10:15:54.781Z,12.76
2019-05-05T10:18:25.487Z,12.19
2019-05-05T10:20:56.474Z,12.21
2019-05-05T10:23:28.482Z,12.52
2019-05-05T10:26:04.357Z,14.14
2019-05-05T10:28:35.143Z,17.22
2019-05-05T10:31:05.808Z,18.24
2019-05-05T10:33:39.800Z,16.34
2019-05-05T10:36:10.194Z,15.33
2019-05-05T10:38:44.455Z,14.29
2019-05-05T10:41:14.971Z,12.85
2019-05-05T10:43:45.336Z,12.24
2019-05-05T10:46:15.865Z,11.27
2019-05-05T10:48:46.468Z,12.36
2019-05-05T10:51:16.671Z,15.24
2019-05-05T10:53:47.106Z,14.89
2019-05-05T10:56:17.769Z,12.73
2019-05-05T10:58:48.077Z,12.36
2019-05-05T11:01:18.505Z,11.37
2019-05-05T11:03:49.095Z,10.20
2019-05-05T11:06:20.812Z,10.02
2019-05-05T11:08:54.018Z,10.64
2019-05-05T11:11:24.526Z,10.29
2019-05-05T11:13:55.125Z,10.49
2019-05-05T11:16:25.541Z,10.35
2019-05-05T11:18:56.335Z,11.29
2019-05-05T11:21:26.748Z,12.38
2019-05-05T11:23:57.347Z,13.23
2019-05-05T11:26:27.830Z,13.41
2019-05-05T11:28:58.156Z,13.44
2019-05-05T11:31:28.428Z,12.83
2019-05-05T11:34:17.684Z,12.42
2019-05-05T11:37:16.480Z,12.39
2019-05-05T11:39:46.696Z,12.63
2019-05-05T11:42:17.205Z,14.03
2019-05-05T11:44:47.793Z,15.95
2019-05-05T11:47:18.199Z,15.72
2019-05-05T11:49:48.462Z,15.30
2019-05-05T11:52:18.779Z,14.54
2019-05-05T11:54:49.090Z,14.37
2019-05-05T11:57:19.455Z,14.03
2019-05-05T11:59:50.230Z,12.78
2019-05-05T12:02:20.441Z,12.35
2019-05-05T12:04:50.858Z,12.16
2019-05-05T12:07:23.619Z,11.28
2019-05-05T12:09:56.777Z,11.11
2019-05-05T12:12:27.103Z,11.24
2019-05-05T12:14:57.340Z,11.03
2019-05-05T12:17:37.262Z,10.72
2019-05-05T12:20:10.302Z,10.51
2019-05-05T12:22:41.169Z,10.44
2019-05-05T12:25:29.906Z,10.45
2019-05-05T12:28:04.924Z,10.51
2019-05-05T12:30:39.991Z,10.61
2019-05-05T12:33:10.850Z,10.80
2019-05-05T12:35:41.463Z,11.01
2019-05-05T12:38:12.259Z,11.54
2019-05-05T12:40:44.255Z,11.74
2019-05-05T12:43:15.524Z,12.44
2019-05-05T12:45:49.507Z,13.14
2019-05-05T12:48:25.571Z,13.32
2019-05-05T12:50:56.288Z,13.04
2019-05-05T12:53:27.931Z,12.53
2019-05-05T12:55:59.999Z,12.13
2019-05-05T12:58:30.455Z,12.35
2019-05-05T13:01:09.197Z,12.88
2019-05-05T13:03:39.893Z,12.31
2019-05-05T13:06:11.351Z,11.82
2019-05-05T13:08:41.962Z,12.48
2019-05-05T13:11:13.608Z,12.65
2019-05-05T13:13:44.194Z,12.70
2019-05-05T13:16:15.066Z,12.67
2019-05-05T13:18:45.729Z,12.73
2019-05-05T13:21:45.503Z,13.01
2019-05-05T13:24:35.105Z,13.00
2019-05-05T13:27:19.258Z,13.42
2019-05-05T13:29:44.726Z,13.52
2019-05-05T13:32:15.355Z,13.86
2019-05-05T13:34:46.124Z,13.83
2019-05-05T13:37:16.596Z,14.23
2019-05-05T13:39:47.444Z,14.25
2019-05-05T13:42:17.825Z,14.46
2019-05-05T13:44:52.303Z,14.76
2019-05-05T13:47:23.869Z,14.17
2019-05-05T13:49:57.730Z,13.66
2019-05-05T13:52:28.196Z,12.78
2019-05-05T13:54:58.493Z,13.05
2019-05-05T13:57:29.142Z,13.35
2019-05-05T13:59:59.853Z,13.88
2019-05-05T14:02:30.288Z,13.66
2019-05-05T14:05:01.008Z,13.99
2019-05-05T14:07:31.261Z,13.99
2019-05-05T14:10:03.793Z,13.95
2019-05-05T14:12:34.831Z,13.59
2019-05-05T14:15:06.584Z,13.66
2019-05-05T14:17:36.910Z,14.03
2019-05-05T14:20:11.884Z,13.76
2019-05-05T14:22:40.169Z,13.85
2019-05-05T14:25:35.700Z,13.78
2019-05-05T14:28:06.257Z,14.21
2019-05-05T14:31:04.443Z,13.94
2019-05-05T14:33:54.226Z,13.51
2019-05-05T14:36:33.514Z,12.67
2019-05-05T14:39:06.216Z,12.25
2019-05-05T14:41:38.550Z,11.28
2019-05-05T14:44:09.291Z,11.68
2019-05-05T14:46:39.927Z,11.68
2019-05-05T14:49:10.143Z,11.23
2019-05-05T14:51:40.454Z,11.15
2019-05-05T14:54:10.894Z,11.50
2019-05-05T14:56:41.586Z,11.62
2019-05-05T14:59:14.062Z,11.87
2019-05-05T15:01:44.721Z,11.63
2019-05-05T15:04:17.312Z,11.45
2019-05-05T15:07:01.250Z,10.74
2019-05-05T15:09:49.770Z,10.57
2019-05-05T15:12:40.332Z,10.31
2019-05-05T15:15:10.889Z,10.54
2019-05-05T15:17:41.383Z,10.57
2019-05-05T15:20:13.844Z,10.87
2019-05-05T15:22:43.933Z,11.15
2019-05-05T15:25:14.270Z,11.56
2019-05-05T15:27:45.100Z,11.71
2019-05-05T15:30:15.753Z,11.84
2019-05-05T15:32:46.229Z,12.05
2019-05-05T15:35:16.926Z,11.46
2019-05-05T15:37:47.329Z,11.29
2019-05-05T15:40:19.307Z,11.38
2019-05-05T15:42:49.812Z,11.41
2019-05-05T15:45:20.232Z,11.37
2019-05-05T15:47:51.046Z,11.21
2019-05-05T15:50:21.366Z,11.21
2019-05-05T15:52:51.786Z,11.11
2019-05-05T15:55:24.425Z,11.07
2019-05-05T15:57:54.881Z,11.00
2019-05-05T16:00:25.698Z,10.74
2019-05-05T16:02:57.073Z,10.81
2019-05-05T16:05:27.512Z,10.38
2019-05-05T16:07:58.273Z,10.35
2019-05-05T16:10:28.747Z,10.09
2019-05-05T16:12:59.795Z,10.22
2019-05-05T16:15:53.502Z,10.23
2019-05-05T16:18:48.096Z,10.47
2019-05-05T16:21:34.689Z,10.88
2019-05-05T16:24:10.746Z,10.78
2019-05-05T16:26:41.135Z,10.81
2019-05-05T16:29:11.734Z,11.13
2019-05-05T16:31:42.074Z,11.20
2019-05-05T16:34:14.142Z,11.01
2019-05-05T16:36:44.523Z,11.17
2019-05-05T16:39:16.414Z,11.10
2019-05-05T16:41:46.974Z,10.93
2019-05-05T16:44:17.448Z,10.87
2019-05-05T16:46:47.666Z,10.74
2019-05-05T16:49:19.442Z,10.62
2019-05-05T16:52:04.073Z,10.65
2019-05-05T16:54:39.411Z,10.66
2019-05-05T16:57:09.962Z,10.59
2019-05-05T16:59:40.472Z,10.48
2019-05-05T17:02:11.006Z,10.63
2019-05-05T17:04:43.256Z,10.58
2019-05-05T17:07:14.270Z,10.63
2019-05-05T17:09:44.838Z,10.78
2019-05-05T17:12:18.146Z,10.60
2019-05-05T17:14:59.982Z,10.67
2019-05-05T17:17:37.561Z,10.71
2019-05-05T17:20:13.904Z,10.69
2019-05-05T17:23:04.110Z,10.67
2019-05-05T17:25:35.127Z,10.58
2019-05-05T17:28:05.770Z,10.63
2019-05-05T17:30:36.133Z,10.60
2019-05-05T17:33:06.727Z,10.69
2019-05-05T17:35:37.141Z,10.47
2019-05-05T17:38:08.616Z,10.21
2019-05-05T17:40:57.996Z,10.29
2019-05-05T17:43:59.583Z,10.26
2019-05-05T17:46:35.469Z,10.16
2019-05-05T17:49:26.990Z,10.21
2019-05-05T17:52:09.893Z,10.15
2019-05-05T17:54:45.798Z,9.99
2019-05-05T17:57:16.404Z,9.93
2019-05-05T17:59:46.977Z,9.74
2019-05-05T18:02:17.857Z,9.71
2019-05-05T18:04:48.302Z,9.58
2019-05-05T18:07:39.938Z,9.58
2019-05-05T18:10:18.222Z,9.50
2019-05-05T18:13:07.512Z,9.32
2019-05-05T18:15:54.201Z,9.25
2019-05-05T18:18:24.507Z,9.15
2019-05-05T18:20:55.096Z,9.06
2019-05-05T18:23:25.703Z,8.95
2019-05-05T18:25:56.072Z,8.83
2019-05-05T18:28:26.488Z,8.76
2019-05-05T18:30:57.097Z,8.59
2019-05-05T18:33:27.617Z,8.22
2019-05-05T18:35:58.128Z,7.95
2019-05-05T18:38:28.841Z,7.77
2019-05-05T18:41:03.739Z,7.73
2019-05-05T18:43:41.171Z,7.69
2019-05-05T18:46:13.742Z,7.65
2019-05-05T18:48:44.197Z,7.58
2019-05-05T18:51:17.540Z,7.43
2019-05-05T18:53:48.089Z,7.43
2019-05-05T18:56:18.443Z,7.38
2019-05-05T18:58:48.854Z,7.30
2019-05-05T19:01:44.582Z,7.25
2019-05-05T19:04:29.815Z,6.96
2019-05-05T19:07:14.610Z,6.68
2019-05-05T19:09:54.013Z,6.40
2019-05-05T19:12:17.844Z,6.39
2019-05-05T19:14:49.162Z,6.23
2019-05-05T19:17:20.551Z,5.99
2019-05-05T19:19:55.067Z,5.79
2019-05-05T19:22:26.061Z,5.65
2019-05-05T19:24:58.197Z,5.55
2019-05-05T19:27:28.676Z,5.41
2019-05-05T19:29:59.199Z,5.18
2019-05-05T19:32:29.683Z,5.09
2019-05-05T19:35:00.338Z,4.94
2019-05-05T19:37:31.044Z,4.74
2019-05-05T19:40:04.319Z,4.56
2019-05-05T19:42:34.362Z,4.51
2019-05-05T19:45:05.088Z,4.41
2019-05-05T19:47:35.713Z,4.34
2019-05-05T19:50:24.427Z,4.20
2019-05-05T19:52:55.363Z,4.07
2019-05-05T19:55:26.152Z,3.72
2019-05-05T19:57:56.988Z,3.56
2019-05-05T20:00:27.577Z,3.70
2019-05-05T20:03:04.373Z,3.54
2019-05-05T20:05:30.884Z,3.44
2019-05-05T20:08:04.017Z,3.25
2019-05-05T20:10:34.168Z,3.23
2019-05-05T20:13:05.245Z,3.15
2019-05-05T20:15:44.145Z,3.22
2019-05-05T20:18:14.425Z,3.13
2019-05-05T20:20:45.110Z,2.85
2019-05-05T20:23:16.228Z,2.87
2019-05-05T20:25:46.803Z,2.91
2019-05-05T20:28:17.373Z,2.78
2019-05-05T20:30:47.983Z,2.63
2019-05-05T20:33:36.426Z,2.51
2019-05-05T20:36:16.769Z,2.51
2019-05-05T20:38:52.163Z,2.53
2019-05-05T20:41:24.867Z,2.61
2019-05-05T20:43:55.875Z,2.45
2019-05-05T20:46:26.253Z,2.41
2019-05-05T20:48:56.778Z,2.37
2019-05-05T20:51:27.059Z,2.39
2019-05-05T20:53:57.560Z,2.31
2019-05-05T20:56:28.313Z,2.15
2019-05-05T20:58:58.622Z,2.03
2019-05-05T21:01:29.118Z,2.00
2019-05-05T21:03:59.623Z,1.99
2019-05-05T21:06:30.114Z,1.99
2019-05-05T21:09:00.442Z,1.77
2019-05-05T21:11:32.635Z,1.83
2019-05-05T21:14:04.021Z,1.88
2019-05-05T21:16:34.523Z,1.94
2019-05-05T21:19:05.644Z,1.76
2019-05-05T21:21:37.618Z,1.73
2019-05-05T21:24:09.116Z,1.68
2019-05-05T21:26:55.511Z,1.68
2019-05-05T21:29:38.452Z,1.66
2019-05-05T21:31:58.315Z,1.51
2019-05-05T21:34:28.573Z,1.55
2019-05-05T21:36:58.901Z,1.58
2019-05-05T21:39:29.467Z,1.56
2019-05-05T21:42:00.159Z,1.51
2019-05-05T21:44:30.517Z,1.47
2019-05-05T21:47:00.824Z,1.44
2019-05-05T21:49:33.666Z,1.41
2019-05-05T21:52:25.923Z,1.37
2019-05-05T21:55:13.958Z,1.31
2019-05-05T21:58:15.632Z,1.27
2019-05-05T22:01:04.317Z,1.27
2019-05-05T22:03:37.293Z,1.23
2019-05-05T22:06:07.692Z,1.12
2019-05-05T22:08:38.126Z,1.05
2019-05-05T22:11:08.656Z,0.81
2019-05-05T22:13:38.925Z,0.65
2019-05-05T22:16:09.148Z,0.66
2019-05-05T22:18:39.512Z,0.65
2019-05-05T22:21:28.907Z,0.68
2019-05-05T22:24:35.679Z,0.56
2019-05-05T22:27:05.342Z,0.47
2019-05-05T22:29:35.688Z,0.29
2019-05-05T22:32:06.281Z,0.30
2019-05-05T22:34:36.918Z,0.22
2019-05-05T22:37:09.559Z,0.23
2019-05-05T22:39:39.353Z,0.28
2019-05-05T22:42:09.708Z,0.32
2019-05-05T22:44:39.971Z,0.37
2019-05-05T22:47:11.191Z,0.39
2019-05-05T22:49:41.392Z,0.32
2019-05-05T22:52:11.696Z,0.25
2019-05-05T22:54:41.894Z,0.19
2019-05-05T22:57:14.048Z,0.25
2019-05-05T22:59:44.645Z,0.14
2019-05-05T23:02:16.796Z,0.09
2019-05-05T23:04:56.836Z,0.06
2019-05-05T23:07:29.981Z,0.06
2019-05-05T23:10:00.408Z,0.05
2019-05-05T23:12:31.486Z,0.03
2019-05-05T23:15:03.841Z,-0.01
2019-05-05T23:17:55.943Z,-0.03
2019-05-05T23:21:02.246Z,-0.07
2019-05-05T23:23:59.942Z,-0.17
2019-05-05T23:26:35.677Z,-0.22
2019-05-05T23:29:04.375Z,-0.24
2019-05-05T23:31:34.527Z,-0.35
2019-05-05T23:34:05.003Z,-0.34
2019-05-05T23:36:35.425Z,-0.33
2019-05-05T23:39:07.903Z,-0.33
2019-05-05T23:41:38.176Z,-0.36
2019-05-05T23:44:08.586Z,-0.41
2019-05-05T23:46:38.736Z,-0.45
2019-05-05T23:49:08.925Z,-0.52
2019-05-05T23:51:39.113Z,-0.52
2019-05-05T23:54:09.183Z,-0.53
2019-05-05T23:56:39.415Z,-0.51
2019-05-05T23:59:09.720Z,-0.52
